sensor_id;sensor_type;location;lat;lon;timestamp;pressure;altitude;pressure_sealevel;temperature;humidity
63715;BME280;49858;48.956;9.076;2022-08-25T00:00:07;98825.72;;;27.62;39.20
63715;BME280;49858;48.956;9.076;2022-08-25T00:02:35;98824.81;;;27.83;38.93
63715;BME280;49858;48.956;9.076;2022-08-25T00:05:04;98829.22;;;27.93;38.53
63715;BME280;49858;48.956;9.076;2022-08-25T00:07:33;98826.72;;;28.05;38.26
63715;BME280;49858;48.956;9.076;2022-08-25T00:10:03;98816.97;;;28.15;37.69
63715;BME280;49858;48.956;9.076;2022-08-25T00:12:32;98816.97;;;28.15;38.21
63715;BME280;49858;48.956;9.076;2022-08-25T00:14:59;98816.81;;;28.18;38.12
63715;BME280;49858;48.956;9.076;2022-08-25T00:17:27;98817.75;;;27.88;38.46
63715;BME280;49858;48.956;9.076;2022-08-25T00:19:55;98810.13;;;27.20;40.07
63715;BME280;49858;48.956;9.076;2022-08-25T00:22:23;98802.66;;;27.05;40.33
63715;BME280;49858;48.956;9.076;2022-08-25T00:24:51;98803.44;;;26.65;41.62
63715;BME280;49858;48.956;9.076;2022-08-25T00:27:21;98806.00;;;26.81;40.87
63715;BME280;49858;48.956;9.076;2022-08-25T00:29:49;98810.78;;;27.34;39.73
63715;BME280;49858;48.956;9.076;2022-08-25T00:32:16;98807.31;;;27.30;39.70
63715;BME280;49858;48.956;9.076;2022-08-25T00:34:44;98808.88;;;26.50;41.79
63715;BME280;49858;48.956;9.076;2022-08-25T00:37:12;98807.22;;;27.02;40.67
63715;BME280;49858;48.956;9.076;2022-08-25T00:39:41;98814.38;;;27.25;40.12
63715;BME280;49858;48.956;9.076;2022-08-25T00:42:09;98815.63;;;27.33;40.07
63715;BME280;49858;48.956;9.076;2022-08-25T00:44:43;98814.41;;;27.43;39.64
63715;BME280;49858;48.956;9.076;2022-08-25T00:47:11;98817.03;;;27.38;39.67
63715;BME280;49858;48.956;9.076;2022-08-25T00:49:43;98816.44;;;27.61;39.30
63715;BME280;49858;48.956;9.076;2022-08-25T00:52:13;98812.06;;;27.60;39.29
63715;BME280;49858;48.956;9.076;2022-08-25T00:54:45;98810.50;;;27.68;39.25
63715;BME280;49858;48.956;9.076;2022-08-25T00:57:16;98808.28;;;27.54;39.74
63715;BME280;49858;48.956;9.076;2022-08-25T00:59:56;98817.28;;;27.80;38.81
63715;BME280;49858;48.956;9.076;2022-08-25T01:02:24;98811.31;;;27.78;38.73
63715;BME280;49858;48.956;9.076;2022-08-25T01:04:52;98810.69;;;27.83;38.85
63715;BME280;49858;48.956;9.076;2022-08-25T01:07:20;98811.81;;;27.76;38.97
63715;BME280;49858;48.956;9.076;2022-08-25T01:09:50;98804.41;;;27.79;38.99
63715;BME280;49858;48.956;9.076;2022-08-25T01:12:19;98808.66;;;27.93;38.49
63715;BME280;49858;48.956;9.076;2022-08-25T01:14:49;98808.78;;;27.98;38.11
63715;BME280;49858;48.956;9.076;2022-08-25T01:17:19;98803.78;;;27.84;38.46
63715;BME280;49858;48.956;9.076;2022-08-25T01:19:47;98804.41;;;27.88;38.48
63715;BME280;49858;48.956;9.076;2022-08-25T01:22:16;98804.56;;;27.75;38.68
63715;BME280;49858;48.956;9.076;2022-08-25T01:24:49;98798.84;;;27.39;39.45
63715;BME280;49858;48.956;9.076;2022-08-25T01:27:19;98798.50;;;27.27;39.69
63715;BME280;49858;48.956;9.076;2022-08-25T01:29:47;98800.38;;;27.12;40.21
63715;BME280;49858;48.956;9.076;2022-08-25T01:32:14;98801.56;;;27.02;40.49
63715;BME280;49858;48.956;9.076;2022-08-25T01:34:44;98805.28;;;27.30;39.78
63715;BME280;49858;48.956;9.076;2022-08-25T01:37:14;98802.91;;;27.38;39.55
63715;BME280;49858;48.956;9.076;2022-08-25T01:39:46;98799.66;;;27.39;39.22
63715;BME280;49858;48.956;9.076;2022-08-25T01:42:23;98802.31;;;27.34;39.40
63715;BME280;49858;48.956;9.076;2022-08-25T01:44:54;98803.09;;;27.34;39.44
63715;BME280;49858;48.956;9.076;2022-08-25T01:47:23;98808.59;;;27.47;39.11
63715;BME280;49858;48.956;9.076;2022-08-25T01:49:50;98804.50;;;27.39;39.27
63715;BME280;49858;48.956;9.076;2022-08-25T01:52:20;98811.59;;;27.43;39.36
63715;BME280;49858;48.956;9.076;2022-08-25T01:54:51;98808.75;;;27.34;39.37
63715;BME280;49858;48.956;9.076;2022-08-25T01:57:19;98804.38;;;27.02;40.01
63715;BME280;49858;48.956;9.076;2022-08-25T01:59:47;98811.69;;;27.21;39.06
63715;BME280;49858;48.956;9.076;2022-08-25T02:02:15;98806.69;;;27.25;39.59
63715;BME280;49858;48.956;9.076;2022-08-25T02:04:44;98808.72;;;27.25;39.36
63715;BME280;49858;48.956;9.076;2022-08-25T02:07:13;98798.25;;;27.04;39.87
63715;BME280;49858;48.956;9.076;2022-08-25T02:09:41;98810.09;;;27.11;39.75
63715;BME280;49858;48.956;9.076;2022-08-25T02:12:11;98804.31;;;27.15;39.67
63715;BME280;49858;48.956;9.076;2022-08-25T02:14:39;98808.47;;;27.01;39.85
63715;BME280;49858;48.956;9.076;2022-08-25T02:17:07;98809.25;;;27.01;39.85
63715;BME280;49858;48.956;9.076;2022-08-25T02:19:35;98806.22;;;26.87;40.23
63715;BME280;49858;48.956;9.076;2022-08-25T02:22:04;98808.06;;;26.81;40.39
63715;BME280;49858;48.956;9.076;2022-08-25T02:24:32;98811.00;;;26.77;40.55
63715;BME280;49858;48.956;9.076;2022-08-25T02:27:00;98815.47;;;26.87;40.21
63715;BME280;49858;48.956;9.076;2022-08-25T02:29:31;98802.75;;;26.30;41.54
63715;BME280;49858;48.956;9.076;2022-08-25T02:31:59;98805.44;;;26.55;41.13
63715;BME280;49858;48.956;9.076;2022-08-25T02:34:27;98802.19;;;26.66;41.01
63715;BME280;49858;48.956;9.076;2022-08-25T02:36:55;98798.63;;;26.74;40.46
63715;BME280;49858;48.956;9.076;2022-08-25T02:39:23;98801.31;;;26.78;40.18
63715;BME280;49858;48.956;9.076;2022-08-25T02:41:50;98805.31;;;26.15;42.11
63715;BME280;49858;48.956;9.076;2022-08-25T02:44:18;98806.25;;;26.12;42.05
63715;BME280;49858;48.956;9.076;2022-08-25T02:46:47;98798.38;;;25.85;42.80
63715;BME280;49858;48.956;9.076;2022-08-25T02:49:15;98796.97;;;26.33;40.98
63715;BME280;49858;48.956;9.076;2022-08-25T02:51:44;98792.72;;;26.50;40.82
63715;BME280;49858;48.956;9.076;2022-08-25T02:54:11;98788.66;;;26.52;41.07
63715;BME280;49858;48.956;9.076;2022-08-25T02:56:39;98791.16;;;26.28;41.63
63715;BME280;49858;48.956;9.076;2022-08-25T02:59:09;98797.13;;;26.08;42.36
63715;BME280;49858;48.956;9.076;2022-08-25T03:01:37;98798.97;;;26.23;42.02
63715;BME280;49858;48.956;9.076;2022-08-25T03:04:06;98793.13;;;26.40;41.33
63715;BME280;49858;48.956;9.076;2022-08-25T03:06:34;98798.03;;;26.48;41.24
63715;BME280;49858;48.956;9.076;2022-08-25T03:09:02;98794.69;;;26.19;42.41
63715;BME280;49858;48.956;9.076;2022-08-25T03:11:31;98788.94;;;26.44;41.37
63715;BME280;49858;48.956;9.076;2022-08-25T03:13:58;98786.34;;;26.37;41.49
63715;BME280;49858;48.956;9.076;2022-08-25T03:16:26;98776.94;;;26.31;41.64
63715;BME280;49858;48.956;9.076;2022-08-25T03:18:55;98781.28;;;25.66;43.36
63715;BME280;49858;48.956;9.076;2022-08-25T03:21:25;98785.09;;;25.72;43.39
63715;BME280;49858;48.956;9.076;2022-08-25T03:23:53;98789.88;;;25.97;42.28
63715;BME280;49858;48.956;9.076;2022-08-25T03:26:21;98777.06;;;26.06;42.01
63715;BME280;49858;48.956;9.076;2022-08-25T03:29:07;98783.94;;;26.05;42.33
63715;BME280;49858;48.956;9.076;2022-08-25T03:31:36;98785.53;;;25.84;42.44
63715;BME280;49858;48.956;9.076;2022-08-25T03:34:04;98789.66;;;25.57;43.34
63715;BME280;49858;48.956;9.076;2022-08-25T03:36:33;98791.31;;;25.67;43.07
63715;BME280;49858;48.956;9.076;2022-08-25T03:39:03;98796.84;;;25.58;43.16
63715;BME280;49858;48.956;9.076;2022-08-25T03:41:31;98796.88;;;24.85;45.60
63715;BME280;49858;48.956;9.076;2022-08-25T03:44:00;98794.25;;;24.65;46.33
63715;BME280;49858;48.956;9.076;2022-08-25T03:46:31;98788.50;;;24.43;46.61
63715;BME280;49858;48.956;9.076;2022-08-25T03:49:00;98784.25;;;24.64;46.21
63715;BME280;49858;48.956;9.076;2022-08-25T03:51:30;98779.00;;;23.83;48.50
63715;BME280;49858;48.956;9.076;2022-08-25T03:54:02;98777.59;;;23.91;47.66
63715;BME280;49858;48.956;9.076;2022-08-25T03:56:30;98781.38;;;23.84;48.34
63715;BME280;49858;48.956;9.076;2022-08-25T03:58:58;98778.63;;;23.68;48.96
63715;BME280;49858;48.956;9.076;2022-08-25T04:01:26;98778.97;;;24.12;47.62
63715;BME280;49858;48.956;9.076;2022-08-25T04:03:54;98779.47;;;23.81;48.15
63715;BME280;49858;48.956;9.076;2022-08-25T04:06:22;98772.09;;;23.09;50.08
63715;BME280;49858;48.956;9.076;2022-08-25T04:08:50;98773.53;;;23.46;49.89
63715;BME280;49858;48.956;9.076;2022-08-25T04:11:21;98771.50;;;23.63;49.31
63715;BME280;49858;48.956;9.076;2022-08-25T04:13:50;98768.22;;;23.36;49.91
63715;BME280;49858;48.956;9.076;2022-08-25T04:16:21;98773.75;;;23.23;50.23
63715;BME280;49858;48.956;9.076;2022-08-25T04:18:50;98773.38;;;23.83;48.84
63715;BME280;49858;48.956;9.076;2022-08-25T04:21:20;98776.50;;;23.56;49.67
63715;BME280;49858;48.956;9.076;2022-08-25T04:23:48;98774.34;;;22.82;51.37
63715;BME280;49858;48.956;9.076;2022-08-25T04:26:21;98766.25;;;22.51;52.42
63715;BME280;49858;48.956;9.076;2022-08-25T04:28:49;98775.34;;;21.99;54.52
63715;BME280;49858;48.956;9.076;2022-08-25T04:31:19;98774.69;;;23.33;50.37
63715;BME280;49858;48.956;9.076;2022-08-25T04:33:47;98774.44;;;22.78;51.29
63715;BME280;49858;48.956;9.076;2022-08-25T04:36:17;98772.16;;;23.38;50.43
63715;BME280;49858;48.956;9.076;2022-08-25T04:38:46;98775.56;;;23.91;48.66
63715;BME280;49858;48.956;9.076;2022-08-25T04:41:17;98769.88;;;23.79;48.88
63715;BME280;49858;48.956;9.076;2022-08-25T04:43:46;98776.19;;;23.83;48.83
63715;BME280;49858;48.956;9.076;2022-08-25T04:46:17;98775.19;;;24.18;47.50
63715;BME280;49858;48.956;9.076;2022-08-25T04:48:47;98775.38;;;24.11;47.74
63715;BME280;49858;48.956;9.076;2022-08-25T04:51:19;98786.09;;;24.29;47.48
63715;BME280;49858;48.956;9.076;2022-08-25T04:53:49;98776.16;;;24.66;45.95
63715;BME280;49858;48.956;9.076;2022-08-25T04:56:19;98778.84;;;24.95;45.05
63715;BME280;49858;48.956;9.076;2022-08-25T04:58:49;98782.91;;;25.07;44.92
63715;BME280;49858;48.956;9.076;2022-08-25T05:01:19;98790.22;;;24.92;45.55
63715;BME280;49858;48.956;9.076;2022-08-25T05:03:52;98790.22;;;24.79;45.20
63715;BME280;49858;48.956;9.076;2022-08-25T05:06:21;98790.72;;;24.36;46.89
63715;BME280;49858;48.956;9.076;2022-08-25T05:08:48;98805.50;;;24.11;47.68
63715;BME280;49858;48.956;9.076;2022-08-25T05:11:17;98785.06;;;24.10;47.72
63715;BME280;49858;48.956;9.076;2022-08-25T05:13:52;98792.56;;;24.55;46.53
63715;BME280;49858;48.956;9.076;2022-08-25T05:16:21;98783.56;;;24.47;46.67
63715;BME280;49858;48.956;9.076;2022-08-25T05:18:49;98775.13;;;24.86;45.99
63715;BME280;49858;48.956;9.076;2022-08-25T05:21:19;98768.91;;;25.16;44.97
63715;BME280;49858;48.956;9.076;2022-08-25T05:23:47;98776.97;;;24.25;47.92
63715;BME280;49858;48.956;9.076;2022-08-25T05:26:18;98776.75;;;24.19;48.33
63715;BME280;49858;48.956;9.076;2022-08-25T05:28:50;98779.16;;;23.92;49.35
63715;BME280;49858;48.956;9.076;2022-08-25T05:31:19;98774.66;;;23.65;50.08
63715;BME280;49858;48.956;9.076;2022-08-25T05:33:49;98777.16;;;23.31;51.14
63715;BME280;49858;48.956;9.076;2022-08-25T05:36:18;98774.31;;;23.47;51.20
63715;BME280;49858;48.956;9.076;2022-08-25T05:38:47;98767.81;;;23.66;50.67
63715;BME280;49858;48.956;9.076;2022-08-25T05:41:16;98767.91;;;24.46;48.98
63715;BME280;49858;48.956;9.076;2022-08-25T05:43:47;98771.13;;;24.32;49.17
63715;BME280;49858;48.956;9.076;2022-08-25T05:46:18;98758.94;;;24.64;48.38
63715;BME280;49858;48.956;9.076;2022-08-25T05:48:47;98764.78;;;24.83;48.30
63715;BME280;49858;48.956;9.076;2022-08-25T05:51:15;98765.03;;;24.76;47.94
63715;BME280;49858;48.956;9.076;2022-08-25T05:53:44;98757.34;;;24.89;47.57
63715;BME280;49858;48.956;9.076;2022-08-25T05:56:13;98754.19;;;24.87;47.41
63715;BME280;49858;48.956;9.076;2022-08-25T05:58:42;98764.91;;;24.66;48.43
63715;BME280;49858;48.956;9.076;2022-08-25T06:01:20;98759.88;;;24.32;48.83
63715;BME280;49858;48.956;9.076;2022-08-25T06:04:10;98762.06;;;23.99;50.10
63715;BME280;49858;48.956;9.076;2022-08-25T06:06:38;98752.63;;;24.86;48.00
63715;BME280;49858;48.956;9.076;2022-08-25T06:09:07;98755.75;;;25.01;47.26
63715;BME280;49858;48.956;9.076;2022-08-25T06:11:36;98763.19;;;25.20;47.36
63715;BME280;49858;48.956;9.076;2022-08-25T06:14:05;98766.81;;;25.55;46.46
63715;BME280;49858;48.956;9.076;2022-08-25T06:16:35;98760.53;;;25.38;46.75
63715;BME280;49858;48.956;9.076;2022-08-25T06:19:05;98766.63;;;25.37;47.21
63715;BME280;49858;48.956;9.076;2022-08-25T06:21:33;98759.66;;;25.63;46.17
63715;BME280;49858;48.956;9.076;2022-08-25T06:24:01;98761.59;;;25.54;46.35
63715;BME280;49858;48.956;9.076;2022-08-25T06:26:29;98760.81;;;25.06;47.69
63715;BME280;49858;48.956;9.076;2022-08-25T06:28:57;98767.66;;;25.30;47.53
63715;BME280;49858;48.956;9.076;2022-08-25T06:31:25;98771.75;;;25.86;46.03
63715;BME280;49858;48.956;9.076;2022-08-25T06:33:54;98765.31;;;25.29;47.14
63715;BME280;49858;48.956;9.076;2022-08-25T06:36:25;98771.00;;;25.72;46.62
63715;BME280;49858;48.956;9.076;2022-08-25T06:38:53;98771.47;;;26.15;45.67
63715;BME280;49858;48.956;9.076;2022-08-25T06:41:21;98771.47;;;26.59;44.77
63715;BME280;49858;48.956;9.076;2022-08-25T06:44:02;98767.63;;;26.21;45.33
63715;BME280;49858;48.956;9.076;2022-08-25T06:46:31;98768.47;;;26.62;44.37
63715;BME280;49858;48.956;9.076;2022-08-25T06:49:04;98767.88;;;26.67;44.42
63715;BME280;49858;48.956;9.076;2022-08-25T06:51:34;98769.72;;;26.30;45.31
63715;BME280;49858;48.956;9.076;2022-08-25T06:54:03;98769.25;;;27.03;43.89
63715;BME280;49858;48.956;9.076;2022-08-25T06:56:32;98762.50;;;27.77;42.24
63715;BME280;49858;48.956;9.076;2022-08-25T06:59:00;98771.75;;;26.92;43.95
63715;BME280;49858;48.956;9.076;2022-08-25T07:01:28;98765.31;;;27.87;41.73
63715;BME280;49858;48.956;9.076;2022-08-25T07:04:00;98766.38;;;27.62;42.00
63715;BME280;49858;48.956;9.076;2022-08-25T07:06:31;98753.97;;;28.66;40.21
63715;BME280;49858;48.956;9.076;2022-08-25T07:09:02;98753.47;;;27.15;43.41
63715;BME280;49858;48.956;9.076;2022-08-25T07:11:30;98751.47;;;27.34;44.07
63715;BME280;49858;48.956;9.076;2022-08-25T07:14:00;98750.03;;;27.66;42.36
63715;BME280;49858;48.956;9.076;2022-08-25T07:16:29;98756.13;;;28.28;41.04
63715;BME280;49858;48.956;9.076;2022-08-25T07:18:58;98747.06;;;28.06;41.40
63715;BME280;49858;48.956;9.076;2022-08-25T07:21:30;98741.09;;;28.89;40.07
63715;BME280;49858;48.956;9.076;2022-08-25T07:24:04;98744.59;;;28.84;40.76
63715;BME280;49858;48.956;9.076;2022-08-25T07:26:33;98731.06;;;29.36;38.53
63715;BME280;49858;48.956;9.076;2022-08-25T07:29:07;98731.28;;;29.08;39.54
63715;BME280;49858;48.956;9.076;2022-08-25T07:31:36;98725.63;;;29.08;39.82
63715;BME280;49858;48.956;9.076;2022-08-25T07:34:04;98728.56;;;29.76;38.33
63715;BME280;49858;48.956;9.076;2022-08-25T07:36:53;98736.34;;;28.19;42.43
63715;BME280;49858;48.956;9.076;2022-08-25T07:39:22;98730.31;;;28.78;40.85
63715;BME280;49858;48.956;9.076;2022-08-25T07:41:50;98738.19;;;30.09;37.83
63715;BME280;49858;48.956;9.076;2022-08-25T07:44:20;98740.16;;;30.47;36.41
63715;BME280;49858;48.956;9.076;2022-08-25T07:46:48;98741.16;;;30.14;37.24
63715;BME280;49858;48.956;9.076;2022-08-25T07:49:17;98734.34;;;29.43;38.95
63715;BME280;49858;48.956;9.076;2022-08-25T07:51:49;98741.94;;;30.44;36.96
63715;BME280;49858;48.956;9.076;2022-08-25T07:54:34;98729.94;;;29.66;38.51
63715;BME280;49858;48.956;9.076;2022-08-25T07:57:05;98738.28;;;30.73;36.35
63715;BME280;49858;48.956;9.076;2022-08-25T07:59:33;98743.06;;;31.38;35.26
63715;BME280;49858;48.956;9.076;2022-08-25T08:02:07;98745.13;;;32.04;33.75
63715;BME280;49858;48.956;9.076;2022-08-25T08:04:45;98742.91;;;31.67;34.87
63715;BME280;49858;48.956;9.076;2022-08-25T08:07:16;98728.25;;;31.13;35.70
63715;BME280;49858;48.956;9.076;2022-08-25T08:09:46;98735.56;;;30.35;36.89
63715;BME280;49858;48.956;9.076;2022-08-25T08:12:30;98736.25;;;30.94;36.29
63715;BME280;49858;48.956;9.076;2022-08-25T08:15:02;98744.09;;;31.61;35.15
63715;BME280;49858;48.956;9.076;2022-08-25T08:17:36;98747.09;;;30.61;36.50
63715;BME280;49858;48.956;9.076;2022-08-25T08:20:05;98737.09;;;31.00;35.87
63715;BME280;49858;48.956;9.076;2022-08-25T08:22:34;98731.28;;;31.71;34.13
63715;BME280;49858;48.956;9.076;2022-08-25T08:25:05;98731.59;;;31.73;34.30
63715;BME280;49858;48.956;9.076;2022-08-25T08:27:36;98731.44;;;30.06;37.40
63715;BME280;49858;48.956;9.076;2022-08-25T08:30:05;98730.91;;;29.78;38.03
63715;BME280;49858;48.956;9.076;2022-08-25T08:32:34;98738.69;;;29.06;39.67
63715;BME280;49858;48.956;9.076;2022-08-25T08:35:22;98733.41;;;30.29;37.38
63715;BME280;49858;48.956;9.076;2022-08-25T08:37:50;98734.06;;;30.10;37.85
63715;BME280;49858;48.956;9.076;2022-08-25T08:40:21;98733.22;;;30.98;36.16
63715;BME280;49858;48.956;9.076;2022-08-25T08:42:57;98736.56;;;32.30;33.83
63715;BME280;49858;48.956;9.076;2022-08-25T08:45:48;98738.38;;;32.59;32.71
63715;BME280;49858;48.956;9.076;2022-08-25T08:48:42;98727.97;;;32.24;33.59
63715;BME280;49858;48.956;9.076;2022-08-25T08:51:17;98720.03;;;30.80;35.83
63715;BME280;49858;48.956;9.076;2022-08-25T08:53:53;98724.56;;;32.83;32.75
63715;BME280;49858;48.956;9.076;2022-08-25T08:56:27;98715.88;;;33.47;30.73
63715;BME280;49858;48.956;9.076;2022-08-25T08:58:59;98724.84;;;33.99;30.46
63715;BME280;49858;48.956;9.076;2022-08-25T09:01:34;98712.66;;;34.10;30.24
63715;BME280;49858;48.956;9.076;2022-08-25T09:04:08;98716.16;;;32.63;32.90
63715;BME280;49858;48.956;9.076;2022-08-25T09:06:41;98709.94;;;33.56;31.10
63715;BME280;49858;48.956;9.076;2022-08-25T09:09:12;98708.25;;;33.98;29.60
63715;BME280;49858;48.956;9.076;2022-08-25T09:11:54;98711.38;;;32.49;32.62
63715;BME280;49858;48.956;9.076;2022-08-25T09:14:33;98717.38;;;33.37;31.17
63715;BME280;49858;48.956;9.076;2022-08-25T09:17:09;98709.81;;;34.27;29.12
63715;BME280;49858;48.956;9.076;2022-08-25T09:20:02;98713.09;;;33.69;30.48
63715;BME280;49858;48.956;9.076;2022-08-25T09:22:51;98707.22;;;34.12;28.50
63715;BME280;49858;48.956;9.076;2022-08-25T09:25:23;98700.78;;;32.49;32.37
63715;BME280;49858;48.956;9.076;2022-08-25T09:28:20;98704.31;;;33.13;31.69
63715;BME280;49858;48.956;9.076;2022-08-25T09:30:57;98699.69;;;34.60;28.38
63715;BME280;49858;48.956;9.076;2022-08-25T09:33:28;98697.00;;;34.95;28.08
63715;BME280;49858;48.956;9.076;2022-08-25T09:35:59;98684.09;;;35.58;27.26
63715;BME280;49858;48.956;9.076;2022-08-25T09:38:32;98678.41;;;34.38;28.90
63715;BME280;49858;48.956;9.076;2022-08-25T09:41:00;98683.09;;;34.64;28.71
63715;BME280;49858;48.956;9.076;2022-08-25T09:43:32;98682.03;;;35.42;26.84
63715;BME280;49858;48.956;9.076;2022-08-25T09:46:08;98674.69;;;34.88;28.50
63715;BME280;49858;48.956;9.076;2022-08-25T09:48:43;98677.78;;;36.06;26.28
63715;BME280;49858;48.956;9.076;2022-08-25T09:51:19;98680.00;;;36.79;25.57
63715;BME280;49858;48.956;9.076;2022-08-25T09:53:53;98670.72;;;37.41;23.92
63715;BME280;49858;48.956;9.076;2022-08-25T09:56:23;98675.59;;;37.03;25.13
63715;BME280;49858;48.956;9.076;2022-08-25T09:58:53;98661.78;;;34.59;29.00
63715;BME280;49858;48.956;9.076;2022-08-25T10:01:28;98670.59;;;33.94;29.51
63715;BME280;49858;48.956;9.076;2022-08-25T10:04:02;98664.81;;;35.06;27.74
63715;BME280;49858;48.956;9.076;2022-08-25T10:06:34;98663.53;;;36.61;25.85
63715;BME280;49858;48.956;9.076;2022-08-25T10:09:20;98663.84;;;33.86;29.18
63715;BME280;49858;48.956;9.076;2022-08-25T10:11:49;98660.91;;;36.33;25.57
63715;BME280;49858;48.956;9.076;2022-08-25T10:14:28;98650.56;;;37.47;23.89
63715;BME280;49858;48.956;9.076;2022-08-25T10:17:13;98657.56;;;35.93;26.66
63715;BME280;49858;48.956;9.076;2022-08-25T10:19:42;98651.72;;;36.95;24.94
63715;BME280;49858;48.956;9.076;2022-08-25T10:22:11;98641.91;;;36.84;25.01
63715;BME280;49858;48.956;9.076;2022-08-25T10:24:47;98641.25;;;36.97;24.96
63715;BME280;49858;48.956;9.076;2022-08-25T10:27:22;98639.31;;;37.05;24.23
63715;BME280;49858;48.956;9.076;2022-08-25T10:30:07;98641.75;;;37.77;23.43
63715;BME280;49858;48.956;9.076;2022-08-25T10:32:49;98637.91;;;36.14;25.82
63715;BME280;49858;48.956;9.076;2022-08-25T10:35:24;98633.66;;;37.00;24.06
63715;BME280;49858;48.956;9.076;2022-08-25T10:38:02;98631.50;;;35.61;26.34
63715;BME280;49858;48.956;9.076;2022-08-25T10:40:41;98627.09;;;37.05;24.40
63715;BME280;49858;48.956;9.076;2022-08-25T10:43:19;98617.06;;;36.68;25.44
63715;BME280;49858;48.956;9.076;2022-08-25T10:46:03;98622.63;;;40.75;19.78
63715;BME280;49858;48.956;9.076;2022-08-25T10:48:44;98618.31;;;41.33;18.54
63715;BME280;49858;48.956;9.076;2022-08-25T10:51:30;98611.28;;;39.04;21.02
63715;BME280;49858;48.956;9.076;2022-08-25T10:54:05;98603.91;;;39.77;20.40
63715;BME280;49858;48.956;9.076;2022-08-25T10:56:36;98603.66;;;39.54;20.87
63715;BME280;49858;48.956;9.076;2022-08-25T10:59:27;98600.50;;;40.70;19.00
63715;BME280;49858;48.956;9.076;2022-08-25T11:02:24;98593.69;;;38.95;21.19
63715;BME280;49858;48.956;9.076;2022-08-25T11:04:58;98579.91;;;37.76;22.73
63715;BME280;49858;48.956;9.076;2022-08-25T11:07:30;98576.25;;;37.43;23.37
63715;BME280;49858;48.956;9.076;2022-08-25T11:10:03;98580.06;;;36.70;23.51
63715;BME280;49858;48.956;9.076;2022-08-25T11:12:36;98582.81;;;37.00;23.31
63715;BME280;49858;48.956;9.076;2022-08-25T11:15:11;98572.75;;;38.15;21.63
63715;BME280;49858;48.956;9.076;2022-08-25T11:17:45;98574.22;;;37.57;22.65
63715;BME280;49858;48.956;9.076;2022-08-25T11:20:20;98568.53;;;38.16;22.30
63715;BME280;49858;48.956;9.076;2022-08-25T11:22:58;98566.47;;;39.09;20.72
63715;BME280;49858;48.956;9.076;2022-08-25T11:25:34;98561.06;;;38.39;21.64
63715;BME280;49858;48.956;9.076;2022-08-25T11:28:10;98566.69;;;39.24;20.06
63715;BME280;49858;48.956;9.076;2022-08-25T11:30:40;98567.03;;;39.21;20.19
63715;BME280;49858;48.956;9.076;2022-08-25T11:33:12;98565.91;;;37.34;22.36
63715;BME280;49858;48.956;9.076;2022-08-25T11:35:48;98570.50;;;37.05;22.84
63715;BME280;49858;48.956;9.076;2022-08-25T11:38:27;98565.53;;;37.95;21.56
63715;BME280;49858;48.956;9.076;2022-08-25T11:41:07;98564.16;;;39.97;19.00
63715;BME280;49858;48.956;9.076;2022-08-25T11:43:57;98566.53;;;40.92;18.63
63715;BME280;49858;48.956;9.076;2022-08-25T11:46:40;98550.25;;;42.60;16.61
63715;BME280;49858;48.956;9.076;2022-08-25T11:49:19;98561.25;;;42.62;17.52
63715;BME280;49858;48.956;9.076;2022-08-25T11:51:51;98561.00;;;43.31;16.22
63715;BME280;49858;48.956;9.076;2022-08-25T11:54:22;98562.53;;;43.32;15.76
63715;BME280;49858;48.956;9.076;2022-08-25T11:56:56;98554.31;;;41.06;17.67
63715;BME280;49858;48.956;9.076;2022-08-25T12:02:34;98553.19;;;41.17;18.06
63715;BME280;49858;48.956;9.076;2022-08-25T12:05:05;98552.09;;;41.35;18.03
63715;BME280;49858;48.956;9.076;2022-08-25T12:07:57;98552.56;;;41.47;17.86
63715;BME280;49858;48.956;9.076;2022-08-25T12:10:59;98555.56;;;41.34;17.74
63715;BME280;49858;48.956;9.076;2022-08-25T12:13:43;98547.78;;;40.41;18.78
63715;BME280;49858;48.956;9.076;2022-08-25T12:16:36;98551.56;;;38.57;21.34
63715;BME280;49858;48.956;9.076;2022-08-25T12:19:23;98540.59;;;37.01;23.29
63715;BME280;49858;48.956;9.076;2022-08-25T12:21:56;98543.22;;;37.55;21.78
63715;BME280;49858;48.956;9.076;2022-08-25T12:24:48;98537.91;;;37.92;21.79
63715;BME280;49858;48.956;9.076;2022-08-25T12:27:24;98541.84;;;39.34;19.74
63715;BME280;49858;48.956;9.076;2022-08-25T12:30:02;98537.59;;;40.69;18.90
63715;BME280;49858;48.956;9.076;2022-08-25T12:32:53;98536.97;;;41.73;17.34
63715;BME280;49858;48.956;9.076;2022-08-25T12:35:28;98532.84;;;40.14;19.71
63715;BME280;49858;48.956;9.076;2022-08-25T12:38:02;98537.97;;;39.87;18.72
63715;BME280;49858;48.956;9.076;2022-08-25T12:40:36;98526.84;;;38.41;20.22
63715;BME280;49858;48.956;9.076;2022-08-25T12:45:51;98538.97;;;41.19;18.19
63715;BME280;49858;48.956;9.076;2022-08-25T12:48:41;98526.84;;;41.21;17.74
63715;BME280;49858;48.956;9.076;2022-08-25T12:51:16;98528.94;;;40.69;17.70
63715;BME280;49858;48.956;9.076;2022-08-25T12:53:49;98515.53;;;39.51;20.41
63715;BME280;49858;48.956;9.076;2022-08-25T12:56:26;98514.88;;;38.50;19.45
63715;BME280;49858;48.956;9.076;2022-08-25T12:59:06;98511.13;;;38.55;20.34
63715;BME280;49858;48.956;9.076;2022-08-25T13:01:51;98513.63;;;38.72;20.51
63715;BME280;49858;48.956;9.076;2022-08-25T13:07:50;98508.97;;;37.90;22.40
63715;BME280;49858;48.956;9.076;2022-08-25T13:10:42;98503.84;;;39.15;19.57
63715;BME280;49858;48.956;9.076;2022-08-25T13:13:23;98505.47;;;38.76;19.99
63715;BME280;49858;48.956;9.076;2022-08-25T13:15:59;98501.00;;;39.02;19.04
63715;BME280;49858;48.956;9.076;2022-08-25T13:18:29;98496.38;;;38.85;19.02
63715;BME280;49858;48.956;9.076;2022-08-25T13:21:04;98494.66;;;38.43;20.52
63715;BME280;49858;48.956;9.076;2022-08-25T13:23:37;98493.47;;;37.79;21.58
63715;BME280;49858;48.956;9.076;2022-08-25T13:26:11;98494.38;;;37.42;21.76
63715;BME280;49858;48.956;9.076;2022-08-25T13:28:41;98495.47;;;36.82;22.18
63715;BME280;49858;48.956;9.076;2022-08-25T13:31:17;98493.63;;;36.85;21.98
63715;BME280;49858;48.956;9.076;2022-08-25T13:33:52;98491.13;;;36.08;23.21
63715;BME280;49858;48.956;9.076;2022-08-25T13:36:22;98496.09;;;36.75;21.99